Solana Beach, California
Current Conditions -  °F | °C
As of 8:55 AM on Thursday 27 Nov 2014 (Local Time) from KNKX Reporting Station
Clear Clear  
Wind Chill: 83°   Ceiling: Unl
Heat Index: 83°   Visibility: 10mi
Dew Point: 16°   Wind: 0mph
Humidity: 8%   Direction: NA
Pressure: 30.11"   Gusts: NA
Location:  32.98°N, 117.27°W
Report Text: KNKX 271655Z 00000KT 10SM CLR 28/M09 A3011 RMK AO2 SLP189 T02831089
Loading
Personal Weather Stations






























Interactive Weather Map New forecast layout! Learn more

10-Day Weather Forecast

Advertisements
Track Severe Weather on mobile